Time;durP1;ratioP1;P1;durP2;ratioP2;P2;SDS_P1;SDS_P2;PMS_P1;PMS_P2;Temp;Humidity;BMP_temperature;BMP_pressure;BME280_temperature;BME280_humidity;BME280_pressure;Samples;Min_cycle;Max_cycle;Signal;HPM_P1;HPM_P2
2022/11/09 00:01:17;;;;;;;24.95;13.93;;;;;;;6.65;86.13;99399.78;5033032;28;20055;-69
2022/11/09 00:03:42;;;;;;;23.90;13.23;;;;;;;6.76;85.44;99399.13;5028981;28;20048;-76
2022/11/09 00:06:07;;;;;;;26.63;13.02;;;;;;;6.69;85.37;99401.28;5025332;28;20617;-70
2022/11/09 00:08:31;;;;;;;29.67;14.63;;;;;;;6.71;85.30;99398.53;5011952;28;20048;-70
2022/11/09 00:11:07;;;;;;;24.73;13.95;;;;;;;6.73;85.77;99401.94;5013410;28;20052;-71
2022/11/09 00:13:36;;;;;;;26.20;13.15;;;;;;;6.73;85.79;99399.31;5015801;28;20039;-68
2022/11/09 00:16:01;;;;;;;29.75;14.95;;;;;;;6.75;86.03;99400.94;4999829;28;20039;-69
2022/11/09 00:18:25;;;;;;;24.77;13.65;;;;;;;6.74;85.94;99399.22;5033044;28;20554;-75
2022/11/09 00:20:50;;;;;;;28.40;14.75;;;;;;;6.81;85.93;99402.34;5040704;28;20513;-73
2022/11/09 00:23:15;;;;;;;23.80;13.43;;;;;;;6.84;85.19;99404.81;5113632;27;20050;-73
2022/11/09 00:25:40;;;;;;;23.25;11.75;;;;;;;6.86;85.73;99402.94;5077445;28;20039;-72
2022/11/09 00:28:04;;;;;;;27.38;15.52;;;;;;;6.82;85.09;99407.56;5094675;27;20038;-72
2022/11/09 00:30:29;;;;;;;27.70;14.15;;;;;;;6.83;85.72;99405.75;5103284;27;20057;-73
2022/11/09 00:32:54;;;;;;;25.95;13.48;;;;;;;6.84;85.57;99405.66;5103084;27;20038;-72
2022/11/09 00:35:19;;;;;;;24.23;13.52;;;;;;;6.84;85.49;99408.31;5084283;27;20046;-70
2022/11/09 00:37:44;;;;;;;31.02;15.60;;;;;;;6.85;85.65;99415.31;5072549;28;20515;-72
2022/11/09 00:40:09;;;;;;;28.55;14.95;;;;;;;6.87;85.69;99413.44;5095497;27;20038;-73
2022/11/09 00:42:34;;;;;;;26.83;14.40;;;;;;;6.89;86.03;99408.88;5098324;27;20062;-73
2022/11/09 00:44:59;;;;;;;25.08;14.75;;;;;;;6.94;85.58;99416.56;5093117;27;20046;-74
2022/11/09 00:47:24;;;;;;;26.23;15.70;;;;;;;6.90;85.54;99412.38;5090587;27;20042;-72
2022/11/09 00:49:49;;;;;;;23.83;14.55;;;;;;;7.00;85.46;99415.34;5088248;28;20039;-72
2022/11/09 00:52:14;;;;;;;26.27;14.95;;;;;;;6.99;85.26;99416.28;5079452;28;20046;-72
2022/11/09 00:54:39;;;;;;;28.88;16.00;;;;;;;7.00;85.92;99418.00;5097488;27;20532;-72
2022/11/09 00:57:03;;;;;;;23.70;14.00;;;;;;;7.05;85.31;99415.91;5097789;27;20404;-74
2022/11/09 00:59:28;;;;;;;32.97;17.13;;;;;;;7.07;85.67;99412.22;5093919;27;20043;-72
2022/11/09 01:01:53;;;;;;;30.23;15.82;;;;;;;7.13;85.60;99416.28;5079138;27;20031;-69
2022/11/09 01:04:17;;;;;;;25.85;15.02;;;;;;;7.12;85.11;99423.38;5097806;27;20043;-72
2022/11/09 01:06:42;;;;;;;31.35;16.85;;;;;;;7.18;85.32;99420.38;5099263;27;20087;-71
2022/11/09 01:09:08;;;;;;;24.95;16.30;;;;;;;7.15;85.27;99417.06;5094510;27;20134;-72
2022/11/09 01:11:35;;;;;;;24.55;15.25;;;;;;;7.20;84.76;99415.84;5092332;27;20121;-72
2022/11/09 01:14:00;;;;;;;32.88;15.82;;;;;;;7.21;84.72;99422.00;5102311;27;20122;-70
2022/11/09 01:16:26;;;;;;;31.70;16.23;;;;;;;7.18;84.63;99417.72;5086498;27;20043;-70
2022/11/09 01:18:55;;;;;;;27.73;16.52;;;;;;;7.11;85.19;99418.19;5082133;27;20092;-69
2022/11/09 01:21:22;;;;;;;28.02;16.17;;;;;;;7.22;84.92;99418.41;5081697;27;20537;-69
2022/11/09 01:23:47;;;;;;;31.67;17.33;;;;;;;7.23;84.67;99420.06;5103616;27;20569;-68
2022/11/09 01:26:13;;;;;;;29.48;15.00;;;;;;;7.26;84.51;99425.19;5098489;27;20031;-69
2022/11/09 01:28:38;;;;;;;28.42;15.55;;;;;;;7.23;84.83;99426.22;5086020;27;20117;-69
2022/11/09 01:31:06;;;;;;;29.08;16.58;;;;;;;7.19;85.01;99419.44;5070936;27;20137;-72
2022/11/09 01:33:31;;;;;;;31.65;16.13;;;;;;;7.21;85.01;99422.84;5094266;27;20572;-70
2022/11/09 01:36:10;;;;;;;28.95;16.08;;;;;;;7.24;84.63;99421.78;5085810;27;20568;-69
2022/11/09 01:38:37;;;;;;;27.75;15.82;;;;;;;7.29;84.45;99425.03;5098393;27;20514;-66
2022/11/09 01:41:02;;;;;;;29.33;16.08;;;;;;;7.22;84.45;99421.88;5115776;27;20046;-68
2022/11/09 01:43:27;;;;;;;31.90;16.58;;;;;;;7.24;84.48;99425.28;5099919;27;20026;-68
2022/11/09 01:46:21;;;;;;;32.72;16.98;;;;;;;7.21;85.13;99422.00;5095324;27;20049;-68
2022/11/09 01:48:52;;;;;;;33.33;17.27;;;;;;;7.19;85.57;99423.88;5084910;27;20141;-68
2022/11/09 01:51:28;;;;;;;26.52;16.17;;;;;;;7.24;85.37;99427.09;5098014;27;20489;-71
2022/11/09 01:54:00;;;;;;;29.88;16.17;;;;;;;7.19;85.37;99421.22;5078807;27;20073;-69
2022/11/09 01:56:26;;;;;;;38.35;18.10;;;;;;;7.16;85.43;99430.22;5099730;27;20469;-72
2022/11/09 01:58:59;;;;;;;32.33;17.33;;;;;;;7.16;85.60;99438.16;5081601;27;20030;-70
2022/11/09 02:01:26;;;;;;;32.00;16.45;;;;;;;7.25;85.72;99434.94;5097400;27;20122;-72
2022/11/09 02:03:56;;;;;;;23.98;14.98;;;;;;;7.31;85.25;99428.44;5100842;27;20043;-74
2022/11/09 02:06:26;;;;;;;26.27;13.80;;;;;;;7.24;85.23;99433.25;5085303;27;20042;-74
2022/11/09 02:08:54;;;;;;;32.50;15.95;;;;;;;7.24;85.24;99430.59;5118927;27;20034;-68
2022/11/09 02:11:21;;;;;;;34.75;19.42;;;;;;;7.15;85.72;99439.13;5084817;27;20039;-68
2022/11/09 02:13:59;;;;;;;38.67;17.35;;;;;;;7.22;85.79;99444.91;5083429;27;20555;-69
2022/11/09 02:16:26;;;;;;;29.35;15.77;;;;;;;7.31;85.28;99440.84;5065985;27;20039;-67
2022/11/09 02:18:54;;;;;;;30.48;16.17;;;;;;;7.18;85.40;99446.03;5082220;27;20469;-64
2022/11/09 02:21:24;;;;;;;27.00;15.48;;;;;;;7.21;85.47;99441.41;5082397;27;20054;-66
2022/11/09 02:23:50;;;;;;;29.45;15.65;;;;;;;7.20;85.30;99450.31;5090025;27;20054;-67
2022/11/09 02:26:47;;;;;;;28.20;14.35;;;;;;;7.24;86.03;99443.84;5091262;27;20035;-72
2022/11/09 02:29:16;;;;;;;24.42;13.80;;;;;;;7.15;85.84;99449.72;5105304;27;20103;-72
2022/11/09 02:31:45;;;;;;;22.63;13.75;;;;;;;7.13;86.75;99448.09;5093080;27;20051;-72
2022/11/09 02:34:15;;;;;;;26.23;15.35;;;;;;;7.21;85.67;99449.38;5089223;27;20081;-73
2022/11/09 02:36:42;;;;;;;27.35;13.20;;;;;;;7.24;85.70;99438.53;5082879;27;20134;-74
2022/11/09 02:39:11;;;;;;;20.63;11.82;;;;;;;7.26;85.65;99447.28;5083161;27;20066;-68
2022/11/09 02:41:43;;;;;;;28.73;14.75;;;;;;;7.14;86.34;99445.34;5082341;27;20046;-73
2022/11/09 02:44:08;;;;;;;25.17;14.50;;;;;;;7.12;86.44;99451.69;5082300;27;20394;-72
2022/11/09 02:46:36;;;;;;;25.42;14.75;;;;;;;7.13;87.13;99448.09;5073659;27;20455;-71
2022/11/09 02:49:01;;;;;;;25.17;13.75;;;;;;;7.15;87.09;99443.56;5087620;27;20415;-69
2022/11/09 02:51:27;;;;;;;26.23;14.88;;;;;;;7.13;87.13;99448.09;5086233;27;20047;-70
2022/11/09 02:53:52;;;;;;;27.75;14.63;;;;;;;7.18;87.00;99449.53;5082970;27;20050;-71
2022/11/09 02:56:18;;;;;;;26.52;15.52;;;;;;;7.20;87.10;99452.97;5084187;27;20053;-71
2022/11/09 02:58:42;;;;;;;25.67;14.25;;;;;;;7.20;86.78;99452.09;5077475;27;20043;-72
2022/11/09 03:01:07;;;;;;;21.67;12.55;;;;;;;7.24;86.36;99451.81;5122594;27;20019;-70
2022/11/09 03:03:33;;;;;;;21.60;11.60;;;;;;;7.26;86.68;99446.41;5104430;27;20176;-70
2022/11/09 03:05:58;;;;;;;24.63;12.20;;;;;;;7.31;86.24;99457.59;5120834;27;20043;-72
2022/11/09 03:08:23;;;;;;;24.48;13.68;;;;;;;7.27;86.73;99445.47;5129876;27;20054;-76
2022/11/09 03:10:49;;;;;;;19.98;13.20;;;;;;;7.33;87.02;99446.91;5115107;27;20043;-77
2022/11/09 03:13:14;;;;;;;23.20;12.05;;;;;;;7.36;86.57;99444.91;5096199;27;20098;-73
2022/11/09 03:15:39;;;;;;;18.42;12.32;;;;;;;7.41;86.52;99448.13;5106060;27;20035;-75
2022/11/09 03:18:06;;;;;;;20.58;11.50;;;;;;;7.44;86.69;99455.06;5098546;27;20163;-72
2022/11/09 03:20:30;;;;;;;23.02;12.23;;;;;;;7.46;86.27;99446.03;5119136;27;20048;-74
2022/11/09 03:22:59;;;;;;;20.35;12.40;;;;;;;7.52;86.05;99466.91;5118708;27;20057;-73
2022/11/09 03:25:26;;;;;;;20.77;12.60;;;;;;;7.49;86.18;99467.06;5089653;27;20409;-76
2022/11/09 03:27:56;;;;;;;21.50;12.98;;;;;;;7.59;85.93;99457.59;5095941;27;20047;-76
2022/11/09 03:30:21;;;;;;;22.02;13.50;;;;;;;7.49;85.73;99464.41;5115691;27;20035;-73
2022/11/09 03:32:49;;;;;;;23.17;13.88;;;;;;;7.53;86.23;99465.94;5092591;27;20096;-73
2022/11/09 03:35:13;;;;;;;22.27;12.57;;;;;;;7.57;86.16;99471.91;5098413;27;20031;-79
2022/11/09 03:37:38;;;;;;;22.27;12.48;;;;;;;7.50;86.14;99475.88;5098180;27;20064;-76
2022/11/09 03:40:04;;;;;;;22.13;13.98;;;;;;;7.52;86.25;99472.19;5082200;27;20035;-77
2022/11/09 03:42:28;;;;;;;25.60;13.23;;;;;;;7.50;86.30;99475.88;5095627;27;20516;-74
2022/11/09 03:44:53;;;;;;;23.23;13.38;;;;;;;7.57;86.43;99471.91;5109499;27;20555;-76
2022/11/09 03:47:17;;;;;;;24.48;13.35;;;;;;;7.56;86.28;99481.66;5097294;27;20100;-78
2022/11/09 03:49:42;;;;;;;24.10;13.68;;;;;;;7.57;86.31;99475.41;5101329;28;20030;-78
2022/11/09 03:52:06;;;;;;;22.63;12.15;;;;;;;7.61;85.92;99476.06;5114292;27;20063;-78
2022/11/09 03:54:31;;;;;;;17.83;12.02;;;;;;;7.68;85.91;99469.44;5122129;27;20031;-79
2022/11/09 03:56:56;;;;;;;21.60;12.25;;;;;;;7.73;85.77;99482.41;5086120;28;20084;-77
2022/11/09 03:59:20;;;;;;;17.02;11.55;;;;;;;7.66;85.61;99476.66;5114432;27;20111;-76
2022/11/09 04:01:45;;;;;;;21.50;12.07;;;;;;;7.68;85.46;99474.72;5116548;27;20042;-76
2022/11/09 04:04:09;;;;;;;19.45;11.98;;;;;;;7.70;85.47;99467.53;5117873;27;20039;-76
2022/11/09 04:06:34;;;;;;;21.80;12.55;;;;;;;7.72;85.44;99486.88;5087677;28;20095;-78
2022/11/09 04:08:59;;;;;;;23.20;13.95;;;;;;;7.71;85.61;99474.56;5083489;28;20134;-77
2022/11/09 04:11:23;;;;;;;22.27;11.32;;;;;;;7.77;85.60;99476.84;5101360;27;20082;-73
2022/11/09 04:13:48;;;;;;;22.02;12.75;;;;;;;7.75;85.59;99467.25;5084830;28;20470;-78
2022/11/09 04:16:12;;;;;;;19.60;12.02;;;;;;;7.80;85.23;99471.31;5082773;27;20068;-72
2022/11/09 04:18:37;;;;;;;19.88;12.52;;;;;;;7.84;85.41;99474.63;5099100;27;20045;-75
2022/11/09 04:21:02;;;;;;;19.17;12.15;;;;;;;7.88;84.97;99482.31;5081657;28;20143;-74
2022/11/09 04:23:26;;;;;;;24.02;12.75;;;;;;;7.89;84.73;99477.88;5065950;27;20100;-74
2022/11/09 04:25:51;;;;;;;20.77;11.70;;;;;;;7.91;84.39;99482.09;5118584;27;20516;-74
2022/11/09 04:28:16;;;;;;;19.67;12.20;;;;;;;7.97;84.54;99486.19;5104506;27;20493;-73
2022/11/09 04:30:42;;;;;;;23.45;12.27;;;;;;;8.00;84.48;99480.69;5079491;28;20110;-72
2022/11/09 04:33:06;;;;;;;18.15;11.52;;;;;;;8.03;84.20;99476.03;5079432;28;20043;-73
2022/11/09 04:35:33;;;;;;;24.90;12.25;;;;;;;8.06;84.48;99495.38;5081624;28;20130;-75
2022/11/09 04:38:00;;;;;;;25.42;12.77;;;;;;;8.12;84.66;99484.38;5081372;28;20225;-77
2022/11/09 04:40:27;;;;;;;19.55;12.45;;;;;;;8.08;84.34;99483.72;5088818;27;20099;-74
2022/11/09 04:42:52;;;;;;;17.10;11.38;;;;;;;8.09;84.30;99488.06;5127173;27;20038;-74
2022/11/09 04:45:18;;;;;;;20.20;11.57;;;;;;;8.10;84.06;99492.44;5112948;27;20450;-74
2022/11/09 04:47:42;;;;;;;19.20;12.63;;;;;;;8.13;83.67;99494.00;5120316;27;20494;-73
2022/11/09 04:50:07;;;;;;;22.65;12.95;;;;;;;8.15;84.12;99489.47;5112630;27;20557;-75
2022/11/09 04:52:32;;;;;;;21.92;12.93;;;;;;;8.10;83.63;99488.94;5091571;27;20035;-73
2022/11/09 04:54:57;;;;;;;19.25;11.88;;;;;;;8.12;83.79;99492.34;5103570;27;20463;-74
2022/11/09 04:57:22;;;;;;;18.88;11.23;;;;;;;8.14;84.06;99493.91;5085355;27;20406;-76
2022/11/09 04:59:46;;;;;;;19.60;12.18;;;;;;;8.17;84.09;99500.84;5084128;27;20047;-73
2022/11/09 05:02:11;;;;;;;19.75;11.27;;;;;;;8.16;83.70;99512.41;5111494;27;20114;-74
2022/11/09 05:04:35;;;;;;;21.38;12.98;;;;;;;8.15;83.67;99494.78;5107348;27;20394;-75
2022/11/09 05:07:00;;;;;;;20.92;12.18;;;;;;;8.17;83.83;99504.34;5103193;27;20083;-73
2022/11/09 05:09:25;;;;;;;17.95;12.32;;;;;;;8.22;83.86;99507.59;5102036;27;20047;-73
2022/11/09 05:11:50;;;;;;;18.92;11.88;;;;;;;8.27;83.55;99502.81;5101908;27;20132;-74
2022/11/09 05:14:15;;;;;;;18.58;12.50;;;;;;;8.22;83.46;99515.56;5103284;27;20084;-75
2022/11/09 05:16:40;;;;;;;24.10;13.02;;;;;;;8.18;83.38;99515.84;5084336;27;20117;-77
2022/11/09 05:19:05;;;;;;;18.60;11.85;;;;;;;8.23;83.35;99514.59;5069573;27;20035;-77
2022/11/09 05:21:29;;;;;;;18.63;12.55;;;;;;;8.20;83.09;99514.78;5092520;27;20058;-77
2022/11/09 05:24:01;;;;;;;21.70;12.30;;;;;;;8.26;83.08;99514.38;5087161;27;20047;-77
2022/11/09 05:26:31;;;;;;;19.50;11.98;;;;;;;8.32;83.03;99511.38;5085905;27;20047;-75
2022/11/09 05:28:57;;;;;;;19.65;11.70;;;;;;;8.39;82.76;99511.81;5084591;27;20045;-77
2022/11/09 05:31:22;;;;;;;17.77;11.77;;;;;;;8.42;82.73;99508.13;5102036;27;20035;-78
2022/11/09 05:33:49;;;;;;;18.77;12.07;;;;;;;8.53;82.64;99509.13;5102747;27;20068;-77
2022/11/09 05:36:14;;;;;;;20.35;11.40;;;;;;;8.55;81.77;99506.38;5083655;27;20034;-74
2022/11/09 05:38:39;;;;;;;18.40;11.60;;;;;;;8.65;82.02;99510.13;5100362;27;20050;-71
2022/11/09 05:41:03;;;;;;;19.77;12.50;;;;;;;8.65;81.72;99512.81;5100838;27;20039;-71
2022/11/09 05:43:28;;;;;;;19.15;12.70;;;;;;;8.67;81.50;99521.53;5123526;27;20072;-73
2022/11/09 05:45:53;;;;;;;18.50;10.35;;;;;;;8.72;81.33;99517.59;5121718;27;20045;-71
2022/11/09 05:48:18;;;;;;;16.88;10.95;;;;;;;8.71;81.01;99526.53;5115593;27;20050;-72
2022/11/09 05:50:43;;;;;;;22.33;10.48;;;;;;;8.80;81.42;99529.56;5065350;27;20031;-74
2022/11/09 05:53:24;;;;;;;18.00;10.60;;;;;;;8.84;81.12;99523.91;5069871;27;20043;-73
2022/11/09 05:55:49;;;;;;;17.05;10.02;;;;;;;8.92;81.15;99523.38;5100758;27;20046;-73
2022/11/09 05:58:14;;;;;;;21.60;12.05;;;;;;;8.88;80.68;99517.44;5100562;27;20038;-73
2022/11/09 06:00:38;;;;;;;16.60;10.95;;;;;;;8.96;80.75;99524.91;5082073;27;20035;-73
2022/11/09 06:03:06;;;;;;;19.73;11.63;;;;;;;8.98;80.76;99520.34;5102702;27;20046;-73
2022/11/09 06:05:33;;;;;;;16.95;11.75;;;;;;;8.84;80.62;99529.22;5068908;27;20062;-77
2022/11/09 06:08:02;;;;;;;22.65;11.57;;;;;;;8.87;80.83;99521.06;5086551;27;20088;-75
2022/11/09 06:10:26;;;;;;;22.85;11.00;;;;;;;8.83;80.63;99524.88;5106859;27;20049;-76
2022/11/09 06:12:51;;;;;;;19.60;11.27;;;;;;;8.80;80.83;99526.91;5089538;27;20134;-74
2022/11/09 06:15:16;;;;;;;18.65;11.25;;;;;;;8.71;80.75;99536.31;5112596;27;20095;-75
2022/11/09 06:17:41;;;;;;;17.58;10.98;;;;;;;8.78;81.20;99526.13;5096682;27;20035;-74
2022/11/09 06:20:06;;;;;;;17.25;11.18;;;;;;;8.75;81.07;99527.19;5106420;27;20072;-73
2022/11/09 06:22:31;;;;;;;17.13;11.05;;;;;;;8.70;81.17;99524.81;5111483;27;20051;-73
2022/11/09 06:24:55;;;;;;;21.27;11.80;;;;;;;8.73;81.62;99526.44;5069538;27;20061;-72
2022/11/09 06:27:20;;;;;;;22.98;11.93;;;;;;;8.74;81.74;99536.09;5106902;27;20042;-72
2022/11/09 06:29:45;;;;;;;21.25;11.07;;;;;;;8.74;82.13;99533.44;5110056;27;20043;-72
2022/11/09 06:32:10;;;;;;;20.42;11.73;;;;;;;8.81;82.21;99544.53;5125536;27;20117;-71
2022/11/09 06:34:35;;;;;;;19.17;11.43;;;;;;;8.71;81.97;99544.28;5108795;27;20039;-72
2022/11/09 06:36:59;;;;;;;21.13;12.70;;;;;;;8.75;82.18;99543.13;5061889;27;20038;-71
2022/11/09 06:39:24;;;;;;;20.13;11.02;;;;;;;8.74;82.85;99541.44;5079493;27;20023;-73
2022/11/09 06:41:49;;;;;;;18.52;12.35;;;;;;;8.64;82.24;99561.59;5079263;27;20043;-73
2022/11/09 06:44:14;;;;;;;21.77;11.55;;;;;;;8.73;82.43;99551.19;5098366;27;20035;-73
2022/11/09 06:46:38;;;;;;;23.48;12.23;;;;;;;8.69;82.82;99554.19;5103248;27;20046;-72
2022/11/09 06:49:03;;;;;;;18.98;12.57;;;;;;;8.68;82.75;99547.16;5080608;27;20047;-72
2022/11/09 06:51:28;;;;;;;17.95;11.45;;;;;;;8.69;82.66;99546.22;5099207;27;20042;-72
2022/11/09 06:53:53;;;;;;;21.73;12.63;;;;;;;8.74;82.85;99552.91;5098837;27;20164;-73
2022/11/09 06:56:18;;;;;;;29.55;12.05;;;;;;;8.80;83.27;99554.34;5097776;27;20149;-73
2022/11/09 06:58:42;;;;;;;23.20;12.48;;;;;;;8.78;83.05;99552.72;5079113;27;20826;-72
2022/11/09 07:01:15;;;;;;;17.45;10.35;;;;;;;8.93;82.91;99555.19;5093200;27;20046;-72
2022/11/09 07:03:40;;;;;;;13.50;9.32;;;;;;;8.96;82.77;99560.31;5065387;27;20374;-72
2022/11/09 07:06:07;;;;;;;19.27;11.05;;;;;;;8.99;82.58;99557.47;5077842;27;20412;-73
2022/11/09 07:08:32;;;;;;;18.35;11.13;;;;;;;8.98;82.28;99571.72;5084504;27;20042;-73
2022/11/09 07:11:05;;;;;;;22.23;11.48;;;;;;;8.97;82.07;99572.66;5117025;27;20054;-72
2022/11/09 07:13:30;;;;;;;18.70;11.50;;;;;;;8.92;81.95;99565.94;5078231;27;20500;-72
2022/11/09 07:15:54;;;;;;;22.48;12.27;;;;;;;8.96;82.21;99572.75;5078211;27;20043;-71
2022/11/09 07:18:19;;;;;;;19.55;11.18;;;;;;;8.98;82.06;99571.72;5077732;27;20038;-71
2022/11/09 07:20:44;;;;;;;23.08;11.65;;;;;;;9.02;82.22;99575.88;5060927;27;20122;-72
2022/11/09 07:23:08;;;;;;;22.00;11.57;;;;;;;9.06;82.29;99574.72;5074898;27;20050;-72
2022/11/09 07:25:33;;;;;;;20.13;11.55;;;;;;;9.09;82.32;99573.66;5096022;27;20117;-70
2022/11/09 07:28:07;;;;;;;19.35;10.63;;;;;;;8.99;81.99;99578.75;5095931;27;20035;-71
2022/11/09 07:30:31;;;;;;;20.30;10.85;;;;;;;8.98;82.37;99582.34;5060901;27;20053;-70
2022/11/09 07:32:58;;;;;;;22.13;10.80;;;;;;;9.03;82.25;99580.22;5106797;27;20047;-71
2022/11/09 07:35:23;;;;;;;21.85;10.75;;;;;;;9.07;82.98;99584.41;5113392;27;20091;-71
2022/11/09 07:37:47;;;;;;;24.70;11.85;;;;;;;9.10;82.35;99592.19;5096623;27;20039;-71
2022/11/09 07:40:12;;;;;;;18.55;11.32;;;;;;;9.10;81.93;99586.88;5061854;27;20438;-70
2022/11/09 07:42:37;;;;;;;17.90;10.75;;;;;;;9.04;82.33;99587.25;5096759;27;20043;-71
2022/11/09 07:45:01;;;;;;;21.85;12.18;;;;;;;9.00;82.06;99591.09;5096272;27;20495;-70
2022/11/09 07:47:28;;;;;;;21.25;12.13;;;;;;;8.93;82.37;99602.19;5110640;27;20096;-74
2022/11/09 07:49:53;;;;;;;19.23;11.23;;;;;;;8.99;82.61;99593.84;5096128;27;20039;-70
2022/11/09 07:52:17;;;;;;;26.73;13.00;;;;;;;9.07;82.77;99603.00;5096363;27;20142;-70
2022/11/09 07:54:42;;;;;;;20.45;11.25;;;;;;;9.17;82.40;99597.06;5095837;27;20046;-73
2022/11/09 07:57:07;;;;;;;20.30;11.05;;;;;;;9.05;82.43;99594.28;5095949;27;20046;-72
2022/11/09 07:59:31;;;;;;;22.83;12.20;;;;;;;8.91;82.79;99602.34;5091885;27;20087;-72
2022/11/09 08:01:57;;;;;;;20.83;12.25;;;;;;;8.97;82.81;99603.72;5095406;27;20127;-71
2022/11/09 08:04:22;;;;;;;20.30;11.80;;;;;;;9.01;82.74;99598.13;5078417;28;20047;-75
2022/11/09 08:06:47;;;;;;;19.65;12.63;;;;;;;8.95;82.87;99606.47;5078534;28;20042;-74
2022/11/09 08:09:11;;;;;;;20.13;12.05;;;;;;;8.97;82.94;99606.38;5108252;27;20046;-73
2022/11/09 08:11:36;;;;;;;22.27;11.00;;;;;;;8.93;83.29;99600.41;5098830;27;20038;-72
2022/11/09 08:14:01;;;;;;;19.13;11.02;;;;;;;8.92;83.24;99611.97;5061612;27;20103;-72
2022/11/09 08:16:25;;;;;;;20.02;12.40;;;;;;;8.93;83.13;99604.84;5100031;27;20046;-72
2022/11/09 08:18:50;;;;;;;18.13;9.23;;;;;;;8.91;83.22;99602.34;5071360;27;20056;-73
2022/11/09 08:21:17;;;;;;;17.60;9.52;;;;;;;8.91;83.22;99596.16;5107446;27;20035;-73
2022/11/09 08:23:41;;;;;;;17.38;9.13;;;;;;;8.93;83.57;99594.22;5082010;27;20489;-72
2022/11/09 08:26:07;;;;;;;14.02;9.75;;;;;;;8.80;83.60;99599.50;5099794;27;20576;-73
2022/11/09 08:28:32;;;;;;;15.45;9.90;;;;;;;8.81;83.76;99597.69;5099429;27;20075;-72
2022/11/09 08:31:01;;;;;;;16.55;9.88;;;;;;;8.80;84.59;99601.31;5099491;27;20039;-73
2022/11/09 08:33:27;;;;;;;14.93;9.80;;;;;;;8.81;85.16;99601.19;5064104;27;20038;-72
2022/11/09 08:35:52;;;;;;;17.27;9.88;;;;;;;8.90;84.27;99595.31;5100103;27;20037;-74
2022/11/09 08:38:17;;;;;;;15.25;9.65;;;;;;;9.00;84.46;99595.56;5100075;27;20043;-73
2022/11/09 08:40:42;;;;;;;15.98;8.95;;;;;;;9.03;84.10;99595.31;5079843;27;20054;-73
2022/11/09 08:43:07;;;;;;;13.50;9.63;;;;;;;8.98;84.22;99597.44;5089126;27;20043;-72
2022/11/09 08:45:34;;;;;;;17.20;9.45;;;;;;;9.00;84.31;99601.72;5081189;27;20031;-71
2022/11/09 08:48:00;;;;;;;21.08;9.85;;;;;;;8.94;84.31;99591.47;5095438;27;20174;-74
2022/11/09 08:50:26;;;;;;;14.25;9.40;;;;;;;8.97;84.35;99587.75;5081346;27;20041;-69
2022/11/09 08:52:51;;;;;;;17.27;9.18;;;;;;;9.00;84.52;99592.88;5080100;27;20071;-70
2022/11/09 08:55:16;;;;;;;12.52;8.60;;;;;;;9.04;84.52;99597.88;5065576;27;20039;-70
2022/11/09 08:57:41;;;;;;;17.75;10.18;;;;;;;9.04;84.35;99597.88;5081954;27;20043;-72
2022/11/09 09:00:06;;;;;;;16.73;10.73;;;;;;;9.10;83.32;99594.84;5081612;27;20039;-72
2022/11/09 09:02:31;;;;;;;14.25;8.93;;;;;;;9.10;83.11;99597.50;5065226;27;20410;-73
2022/11/09 09:04:56;;;;;;;14.93;9.18;;;;;;;9.09;83.59;99590.47;5100564;27;20042;-72
2022/11/09 09:07:21;;;;;;;14.63;9.45;;;;;;;9.17;83.92;99589.94;5099050;27;20047;-72
2022/11/09 09:09:46;;;;;;;15.40;9.82;;;;;;;9.17;83.37;99581.97;5104398;27;20039;-73
2022/11/09 09:12:10;;;;;;;15.30;9.80;;;;;;;9.17;83.93;99589.94;5068730;27;20050;-72
2022/11/09 09:14:36;;;;;;;15.20;9.82;;;;;;;9.16;83.47;99590.06;5114166;27;20123;-71
2022/11/09 09:17:01;;;;;;;18.70;10.25;;;;;;;9.18;83.23;99596.13;5095546;27;20477;-73
2022/11/09 09:19:26;;;;;;;19.63;11.13;;;;;;;9.20;83.58;99587.09;5100490;27;20532;-72
2022/11/09 09:21:50;;;;;;;18.10;11.25;;;;;;;9.20;82.76;99596.88;5100713;27;20462;-73
2022/11/09 09:24:15;;;;;;;19.25;10.70;;;;;;;9.22;83.16;99594.97;5082689;27;20477;-71
2022/11/09 09:26:40;;;;;;;18.48;10.70;;;;;;;9.27;83.55;99591.03;5081949;27;20099;-72
2022/11/09 09:29:05;;;;;;;17.30;11.05;;;;;;;9.36;83.37;99594.91;5102223;27;20126;-71
2022/11/09 09:31:29;;;;;;;18.92;10.52;;;;;;;9.36;83.40;99587.78;5084351;27;20038;-72
2022/11/09 09:33:54;;;;;;;15.63;10.30;;;;;;;9.37;82.96;99591.28;5092471;27;20400;-73
2022/11/09 09:36:21;;;;;;;21.00;11.63;;;;;;;9.40;82.98;99593.72;5111361;27;20035;-72
2022/11/09 09:38:50;;;;;;;21.25;11.48;;;;;;;9.37;82.96;99601.91;5098492;27;20166;-72
2022/11/09 09:41:23;;;;;;;17.35;10.43;;;;;;;9.40;82.76;99597.25;5099479;27;20057;-70
2022/11/09 09:43:51;;;;;;;16.58;10.27;;;;;;;9.39;82.89;99597.34;5097900;27;20054;-71
2022/11/09 09:46:53;;;;;;;21.80;11.32;;;;;;;9.43;83.02;99593.53;5086515;27;20102;-71
2022/11/09 09:49:27;;;;;;;17.45;9.98;;;;;;;9.46;82.71;99590.69;5040537;28;20079;-73
2022/11/09 09:52:01;;;;;;;18.88;11.32;;;;;;;9.28;82.83;99592.75;5038043;28;20531;-72
2022/11/09 09:54:47;;;;;;;21.27;12.25;;;;;;;9.31;83.32;99599.69;5019765;28;20052;-70
2022/11/09 09:57:18;;;;;;;20.15;11.07;;;;;;;9.34;83.84;99594.16;5014921;28;20508;-71
2022/11/09 09:59:48;;;;;;;17.80;10.45;;;;;;;9.33;83.46;99597.78;5037886;28;20045;-72
2022/11/09 10:02:23;;;;;;;24.42;11.52;;;;;;;9.33;83.66;99597.78;5040634;28;20097;-72
2022/11/09 10:04:48;;;;;;;16.55;10.43;;;;;;;9.28;83.30;99602.53;5039458;28;20044;-71
2022/11/09 10:07:31;;;;;;;19.50;12.05;;;;;;;9.17;83.29;99597.06;5012267;28;20064;-72
2022/11/09 10:10:08;;;;;;;19.42;12.02;;;;;;;9.05;84.75;99591.63;5033442;28;20145;-71
2022/11/09 10:13:03;;;;;;;18.73;11.90;;;;;;;9.10;84.96;99596.66;4999643;28;20124;-72
2022/11/09 10:15:42;;;;;;;18.52;11.95;;;;;;;8.96;85.25;99594.88;5006888;28;20503;-75
2022/11/09 10:18:22;;;;;;;18.83;10.18;;;;;;;9.08;85.13;99590.56;5025161;28;20048;-73
2022/11/09 10:21:02;;;;;;;19.27;11.07;;;;;;;9.03;85.09;99596.19;5041794;28;20040;-74
2022/11/09 10:23:39;;;;;;;21.83;10.85;;;;;;;9.10;85.39;99594.84;4999951;28;20135;-72
2022/11/09 10:26:15;;;;;;;17.40;10.70;;;;;;;9.07;84.25;99583.53;5056017;28;20418;-73
2022/11/09 10:28:42;;;;;;;16.38;10.27;;;;;;;8.98;84.89;99586.81;5077952;28;20135;-74
2022/11/09 10:31:19;;;;;;;22.85;11.57;;;;;;;8.94;85.76;99595.94;5083328;28;20046;-74
2022/11/09 10:33:54;;;;;;;20.10;10.43;;;;;;;8.95;85.97;99602.97;5081471;28;20044;-75
2022/11/09 10:36:25;;;;;;;21.23;12.25;;;;;;;8.94;85.45;99596.78;5077315;28;20039;-73
2022/11/09 10:38:55;;;;;;;13.38;7.75;;;;;;;9.00;85.91;99584.91;5077092;28;20035;-71
2022/11/09 10:41:40;;;;;;;19.55;10.45;;;;;;;8.93;86.02;99595.06;5078595;28;20043;-71
2022/11/09 10:44:23;;;;;;;15.18;9.18;;;;;;;8.95;85.92;99587.84;5078085;28;20101;-73
2022/11/09 10:47:13;;;;;;;17.25;10.60;;;;;;;8.92;85.93;99588.06;5078242;28;20036;-73
2022/11/09 10:50:24;;;;;;;16.60;9.57;;;;;;;8.97;86.46;99593.94;5077983;28;20091;-72
2022/11/09 10:53:37;;;;;;;17.10;10.20;;;;;;;9.07;85.97;99592.38;5061864;28;20050;-75
2022/11/09 10:56:20;;;;;;;17.42;10.00;;;;;;;8.91;86.37;99594.34;5012480;28;20057;-73
2022/11/09 10:59:35;;;;;;;18.48;11.23;;;;;;;9.02;86.79;99594.50;5015563;28;20083;-72
2022/11/09 11:02:25;;;;;;;18.58;9.60;;;;;;;8.99;86.85;99588.53;5018317;28;20470;-74
2022/11/09 11:05:08;;;;;;;18.63;11.25;;;;;;;9.07;86.64;99594.19;5018643;28;20052;-72
2022/11/09 11:07:51;;;;;;;16.55;9.82;;;;;;;9.10;86.22;99597.50;5019026;28;20523;-72
2022/11/09 11:10:35;;;;;;;15.88;9.48;;;;;;;9.13;85.86;99588.47;5019317;28;20041;-74
2022/11/09 11:13:20;;;;;;;14.63;9.23;;;;;;;9.09;85.32;99595.78;5019715;28;20037;-74
2022/11/09 11:16:27;;;;;;;16.58;10.23;;;;;;;9.12;85.68;99588.56;5003611;28;20053;-72
2022/11/09 11:19:40;;;;;;;19.23;11.25;;;;;;;9.09;85.38;99595.78;5017076;28;20468;-74
2022/11/09 11:22:26;;;;;;;16.75;9.80;;;;;;;9.02;85.97;99596.31;4996780;28;20113;-71
2022/11/09 11:25:19;;;;;;;15.27;9.05;;;;;;;9.05;86.54;99590.75;5037473;28;20113;-72
2022/11/09 11:28:14;;;;;;;14.63;10.10;;;;;;;8.99;87.14;99589.38;5035427;28;20114;-73
2022/11/09 11:30:57;;;;;;;13.93;9.80;;;;;;;8.97;86.88;99588.63;5034566;28;20048;-73
2022/11/09 11:33:41;;;;;;;15.45;9.27;;;;;;;8.93;87.14;99595.06;5100877;27;20284;-73